Mizunagi — 7JQL — position and weather

sailwx.info

Track history (hours):
 
Tides and Currents Weather Stations Pressure Air Temp Water Temp Dewpoint Dewpoint Depression Visibility Wind Speed Wind Dir Waves Ship Positions

Mizunagi

Last reported at 2017-Sep-25 03:01 UTC. Time now 2017-Oct-19 16:12 UTC.
Position N 34°37' E 134°56'.
Warning: this ship's position is 24 days out of date.

Length 47 m; draft 3.9 m.

Type: Other ship. MMSI: 432983000.

Date/timePositionNaut miles runAvg speedWind from/ knotsBaromVisibWave heightAir tempDewpointWater temp
2017-Sep-25 03:01N 34°37' E 134°56'014.1
2017-Sep-25 03:00N 34°37' E 134°56'814.7
2017-Sep-25 02:29N 34°36' E 135°05'713.5
2017-Sep-25 02:00N 34°36' E 135°13'713.3
2017-Sep-25 01:30N 34°37' E 135°21'4 8.3
2017-Sep-25 00:59N 34°39' E 135°26'0 0.0
2017-Sep-25 00:29N 34°39' E 135°26'0 0.0
2017-Sep-24 23:59N 34°39' E 135°26'0 0.0
2017-Sep-24 23:23N 34°39' E 135°26'0 0.0
2017-Sep-24 22:41N 34°39' E 135°26'0 0.0
2017-Sep-24 22:29N 34°39' E 135°26'0 0.0
2017-Sep-24 21:53N 34°39' E 135°26'0 0.0
2017-Sep-24 21:17N 34°39' E 135°26'0 0.0
2017-Sep-24 20:53N 34°39' E 135°26'0 0.0
2017-Sep-24 20:29N 34°39' E 135°26'0 0.0
2017-Sep-24 19:59N 34°39' E 135°26'0 0.0
2017-Sep-24 19:29N 34°39' E 135°26'0 0.0
2017-Sep-24 18:59N 34°39' E 135°26'0 0.0
2017-Sep-24 18:17N 34°39' E 135°26'0 0.0
2017-Sep-24 17:59N 34°39' E 135°26'0 0.0
2017-Sep-24 17:23N 34°39' E 135°26'0 0.0
2017-Sep-24 16:59N 34°39' E 135°26'0 0.0
2017-Sep-24 16:29N 34°39' E 135°26'0 0.0
2017-Sep-24 15:59N 34°39' E 135°26'0 0.0
2017-Sep-24 15:29N 34°39' E 135°26'0 0.0
2017-Sep-24 14:59N 34°39' E 135°26'0 0.0
2017-Sep-24 14:29N 34°39' E 135°26'0 0.0
2017-Sep-24 13:59N 34°39' E 135°26'0 0.0
2017-Sep-24 13:29N 34°39' E 135°26'0 0.0
2017-Sep-24 12:53N 34°39' E 135°26'0 0.0
2017-Sep-24 12:29N 34°39' E 135°26'0 0.0
2017-Sep-24 11:59N 34°39' E 135°26'0 0.0
2017-Sep-24 11:29N 34°39' E 135°26'0 0.0
2017-Sep-24 10:59N 34°39' E 135°26'0 0.0
2017-Sep-24 10:29N 34°39' E 135°26'0 0.0
2017-Sep-24 09:59N 34°39' E 135°26'0 0.0
2017-Sep-24 09:29N 34°39' E 135°26'0 0.0
2017-Sep-24 08:53N 34°39' E 135°26'0 0.0
2017-Sep-24 08:29N 34°39' E 135°26'0 0.0
2017-Sep-24 07:59N 34°39' E 135°26'0 0.0
2017-Sep-24 07:29N 34°39' E 135°26'0 0.0
2017-Sep-24 07:00N 34°39' E 135°26'1 1.6
2017-Sep-24 06:30N 34°39' E 135°25'1 1.1
2017-Sep-24 06:00N 34°39' E 135°25'0 0.8
2017-Sep-24 05:29N 34°39' E 135°26'0 0.0
2017-Sep-24 05:00N 34°39' E 135°26'0 0.8
2017-Sep-24 04:30N 34°39' E 135°25'1 2.1
2017-Sep-24 04:00N 34°39' E 135°24'1 2.9
2017-Sep-24 03:30N 34°40' E 135°26'1 1.4
2017-Sep-24 03:00N 34°39' E 135°26'0 0.0
2017-Sep-24 02:30N 34°39' E 135°26'0 0.9
2017-Sep-24 02:00N 34°39' E 135°25'1 1.2
2017-Sep-24 01:31N 34°39' E 135°25'1 1.2
2017-Sep-24 01:00N 34°39' E 135°26'0 0.0
2017-Sep-23 23:28N 34°39' E 135°26'0 0.0
2017-Sep-23 22:28N 34°39' E 135°26'0 0.0
2017-Sep-23 21:46N 34°39' E 135°26'0 0.0
2017-Sep-23 21:16N 34°39' E 135°26'0 0.0
2017-Sep-23 20:52N 34°39' E 135°26'0 0.0
2017-Sep-23 20:28N 34°39' E 135°26'0 0.0
2017-Sep-23 19:46N 34°39' E 135°26'  
Track history (hours):
 
Tides and Currents Weather Stations Pressure Air Temp Water Temp Dewpoint Dewpoint Depression Visibility Wind Speed Wind Dir Waves Ship Positions

Mizunagi

Last reported at 2017-Sep-25 03:01 UTC. Time now 2017-Oct-19 16:12 UTC.
Position N 34°37' E 134°56'.
Warning: this ship's position is 24 days out of date.

Length 47 m; draft 3.9 m.

Type: Other ship. MMSI: 432983000.

Date/timePositionNaut miles runAvg speedWind from/ knotsBaromVisibWave heightAir tempDewpointWater temp
2017-Sep-25 03:01N 34°37' E 134°56'014.1
2017-Sep-25 03:00N 34°37' E 134°56'814.7
2017-Sep-25 02:29N 34°36' E 135°05'713.5
2017-Sep-25 02:00N 34°36' E 135°13'713.3
2017-Sep-25 01:30N 34°37' E 135°21'4 8.3
2017-Sep-25 00:59N 34°39' E 135°26'0 0.0
2017-Sep-25 00:29N 34°39' E 135°26'0 0.0
2017-Sep-24 23:59N 34°39' E 135°26'0 0.0
2017-Sep-24 23:23N 34°39' E 135°26'0 0.0
2017-Sep-24 22:41N 34°39' E 135°26'0 0.0
2017-Sep-24 22:29N 34°39' E 135°26'0 0.0
2017-Sep-24 21:53N 34°39' E 135°26'0 0.0
2017-Sep-24 21:17N 34°39' E 135°26'0 0.0
2017-Sep-24 20:53N 34°39' E 135°26'0 0.0
2017-Sep-24 20:29N 34°39' E 135°26'0 0.0
2017-Sep-24 19:59N 34°39' E 135°26'0 0.0
2017-Sep-24 19:29N 34°39' E 135°26'0 0.0
2017-Sep-24 18:59N 34°39' E 135°26'0 0.0
2017-Sep-24 18:17N 34°39' E 135°26'0 0.0
2017-Sep-24 17:59N 34°39' E 135°26'0 0.0
2017-Sep-24 17:23N 34°39' E 135°26'0 0.0
2017-Sep-24 16:59N 34°39' E 135°26'0 0.0
2017-Sep-24 16:29N 34°39' E 135°26'0 0.0
2017-Sep-24 15:59N 34°39' E 135°26'0 0.0
2017-Sep-24 15:29N 34°39' E 135°26'0 0.0
2017-Sep-24 14:59N 34°39' E 135°26'0 0.0
2017-Sep-24 14:29N 34°39' E 135°26'0 0.0
2017-Sep-24 13:59N 34°39' E 135°26'0 0.0
2017-Sep-24 13:29N 34°39' E 135°26'0 0.0
2017-Sep-24 12:53N 34°39' E 135°26'0 0.0
2017-Sep-24 12:29N 34°39' E 135°26'0 0.0
2017-Sep-24 11:59N 34°39' E 135°26'0 0.0
2017-Sep-24 11:29N 34°39' E 135°26'0 0.0
2017-Sep-24 10:59N 34°39' E 135°26'0 0.0
2017-Sep-24 10:29N 34°39' E 135°26'0 0.0
2017-Sep-24 09:59N 34°39' E 135°26'0 0.0
2017-Sep-24 09:29N 34°39' E 135°26'0 0.0
2017-Sep-24 08:53N 34°39' E 135°26'0 0.0
2017-Sep-24 08:29N 34°39' E 135°26'0 0.0
2017-Sep-24 07:59N 34°39' E 135°26'0 0.0
2017-Sep-24 07:29N 34°39' E 135°26'0 0.0
2017-Sep-24 07:00N 34°39' E 135°26'1 1.6
2017-Sep-24 06:30N 34°39' E 135°25'1 1.1
2017-Sep-24 06:00N 34°39' E 135°25'0 0.8
2017-Sep-24 05:29N 34°39' E 135°26'0 0.0
2017-Sep-24 05:00N 34°39' E 135°26'0 0.8
2017-Sep-24 04:30N 34°39' E 135°25'1 2.1
2017-Sep-24 04:00N 34°39' E 135°24'1 2.9
2017-Sep-24 03:30N 34°40' E 135°26'1 1.4
2017-Sep-24 03:00N 34°39' E 135°26'0 0.0
2017-Sep-24 02:30N 34°39' E 135°26'0 0.9
2017-Sep-24 02:00N 34°39' E 135°25'1 1.2
2017-Sep-24 01:31N 34°39' E 135°25'1 1.2
2017-Sep-24 01:00N 34°39' E 135°26'0 0.0
2017-Sep-23 23:28N 34°39' E 135°26'0 0.0
2017-Sep-23 22:28N 34°39' E 135°26'0 0.0
2017-Sep-23 21:46N 34°39' E 135°26'0 0.0
2017-Sep-23 21:16N 34°39' E 135°26'0 0.0
2017-Sep-23 20:52N 34°39' E 135°26'0 0.0
2017-Sep-23 20:28N 34°39' E 135°26'0 0.0
2017-Sep-23 19:46N 34°39' E 135°26'  

Dump ship's entire track history